createdAt,value
2023-01-07T00:01:44.226Z,7.20
2023-01-07T00:04:15.991Z,7.20
2023-01-07T00:06:44.773Z,7.20
2023-01-07T00:09:16.682Z,7.20
2023-01-07T00:11:44.107Z,7.20
2023-01-07T00:14:13.219Z,7.20
2023-01-07T00:16:40.982Z,7.10
2023-01-07T00:19:10.186Z,7.00
2023-01-07T00:21:37.056Z,7.10
2023-01-07T00:24:05.997Z,7.10
2023-01-07T00:26:35.441Z,7.10
2023-01-07T00:29:02.714Z,7.10
2023-01-07T00:31:32.228Z,7.10
2023-01-07T00:33:59.719Z,7.10
2023-01-07T00:36:29.542Z,7.10
2023-01-07T00:38:58.355Z,7.10
2023-01-07T00:41:25.623Z,7.10
2023-01-07T00:43:52.822Z,7.10
2023-01-07T00:46:20.019Z,7.00
2023-01-07T00:48:47.159Z,7.00
2023-01-07T00:51:16.008Z,7.00
2023-01-07T00:53:43.720Z,7.10
2023-01-07T00:56:11.720Z,7.10
2023-01-07T00:58:39.091Z,7.10
2023-01-07T01:01:06.679Z,7.10
2023-01-07T01:03:35.005Z,7.10
2023-01-07T01:06:08.309Z,7.10
2023-01-07T01:08:35.563Z,7.10
2023-01-07T01:11:07.381Z,7.10
2023-01-07T01:13:35.074Z,7.20
2023-01-07T01:16:02.323Z,7.00
2023-01-07T01:18:29.269Z,7.10
2023-01-07T01:20:56.143Z,7.10
2023-01-07T01:23:23.025Z,7.10
2023-01-07T01:25:49.935Z,7.10
2023-01-07T01:28:16.719Z,7.10
2023-01-07T01:30:43.598Z,7.10
2023-01-07T01:33:11.761Z,7.10
2023-01-07T01:35:42.271Z,7.10
2023-01-07T01:38:09.618Z,7.00
2023-01-07T01:40:37.236Z,7.10
2023-01-07T01:43:05.685Z,7.10
2023-01-07T01:45:32.649Z,7.10
2023-01-07T01:48:06.329Z,7.10
2023-01-07T01:50:43.982Z,7.10
2023-01-07T01:53:20.310Z,7.10
2023-01-07T02:06:30.612Z,7.10
2023-01-07T02:09:09.184Z,7.00
2023-01-07T02:12:38.924Z,7.10
2023-01-07T02:15:21.780Z,7.10
2023-01-07T02:18:18.874Z,7.10
2023-01-07T02:21:19.562Z,7.00
2023-01-07T02:24:23.883Z,7.10
2023-01-07T02:26:51.229Z,7.10
2023-01-07T02:29:55.109Z,7.20
2023-01-07T02:32:53.828Z,7.30
2023-01-07T02:35:48.774Z,7.40
2023-01-07T02:38:40.898Z,7.30
2023-01-07T02:41:16.964Z,7.20
2023-01-07T02:43:46.768Z,7.30
2023-01-07T02:46:52.252Z,7.20
2023-01-07T02:49:20.749Z,7.20
2023-01-07T02:51:48.941Z,7.20
2023-01-07T02:54:54.973Z,7.10
2023-01-07T02:57:37.246Z,7.10
2023-01-07T03:00:31.749Z,7.10
2023-01-07T03:03:13.841Z,7.10
2023-01-07T03:06:03.641Z,7.10
2023-01-07T03:08:49.997Z,7.00
2023-01-07T03:11:19.753Z,7.00
2023-01-07T03:14:54.829Z,7.00
2023-01-07T03:17:51.436Z,7.00
2023-01-07T03:20:20.457Z,7.00
2023-01-07T03:23:15.478Z,7.00
2023-01-07T03:26:13.388Z,7.00
2023-01-07T03:28:42.447Z,7.00
2023-01-07T03:31:13.837Z,7.00
2023-01-07T03:34:03.551Z,7.00
2023-01-07T03:36:35.938Z,7.00
2023-01-07T03:39:04.051Z,7.00
2023-01-07T03:41:49.802Z,7.20
2023-01-07T03:44:16.669Z,7.10
2023-01-07T03:46:44.194Z,7.20
2023-01-07T03:49:11.309Z,7.10
2023-01-07T03:51:38.183Z,7.10
2023-01-07T03:54:05.380Z,7.10
2023-01-07T03:56:32.558Z,7.20
2023-01-07T03:58:59.421Z,7.20
2023-01-07T04:01:27.536Z,7.30
2023-01-07T04:03:54.527Z,7.20
2023-01-07T04:06:22.203Z,7.50
2023-01-07T04:08:49.179Z,7.70
2023-01-07T04:11:16.020Z,7.80
2023-01-07T04:13:42.878Z,7.70
2023-01-07T04:16:09.864Z,7.60
2023-01-07T04:18:36.757Z,7.60
2023-01-07T04:21:03.810Z,7.80
2023-01-07T04:23:31.210Z,7.50
2023-01-07T04:25:58.568Z,7.50
2023-01-07T04:28:26.783Z,7.60
2023-01-07T04:30:54.040Z,7.50
2023-01-07T04:33:22.252Z,7.50
2023-01-07T04:35:49.152Z,7.50
2023-01-07T04:38:17.442Z,7.50
2023-01-07T04:40:44.544Z,7.50
2023-01-07T04:43:11.529Z,7.50
2023-01-07T04:45:38.423Z,7.40
2023-01-07T04:48:05.626Z,7.60
2023-01-07T04:50:33.036Z,7.60
2023-01-07T04:52:59.972Z,7.50
2023-01-07T04:55:28.177Z,7.40
2023-01-07T04:57:56.055Z,7.20
2023-01-07T05:00:23.398Z,7.20
2023-01-07T05:02:52.804Z,7.30
2023-01-07T05:05:19.727Z,7.20
2023-01-07T05:07:47.883Z,7.00
2023-01-07T05:10:16.175Z,7.20
2023-01-07T05:12:43.742Z,7.30
2023-01-07T05:15:12.942Z,7.30
2023-01-07T05:17:41.315Z,7.50
2023-01-07T05:20:08.791Z,7.60
2023-01-07T05:22:38.123Z,7.60
2023-01-07T05:25:05.718Z,7.40
2023-01-07T05:27:32.558Z,7.50
2023-01-07T05:30:00.790Z,7.40
2023-01-07T05:32:27.662Z,7.40
2023-01-07T05:34:54.502Z,7.40
2023-01-07T05:37:21.982Z,7.40
2023-01-07T05:39:49.136Z,7.20
2023-01-07T05:42:19.108Z,7.20
2023-01-07T05:44:45.965Z,7.20
2023-01-07T05:47:12.778Z,7.20
2023-01-07T05:49:39.598Z,7.10
2023-01-07T05:52:06.399Z,7.00
2023-01-07T05:54:33.289Z,7.00
2023-01-07T05:57:00.109Z,7.00
2023-01-07T05:59:26.933Z,6.90
2023-01-07T06:01:53.803Z,6.90
2023-01-07T06:04:20.671Z,6.90
2023-01-07T06:06:47.546Z,6.90
2023-01-07T06:09:14.407Z,7.00
2023-01-07T06:11:41.192Z,7.00
2023-01-07T06:14:08.001Z,7.00
2023-01-07T06:16:35.448Z,7.10
2023-01-07T06:19:02.293Z,7.00
2023-01-07T06:21:29.399Z,7.00
2023-01-07T06:23:56.517Z,6.90
2023-01-07T06:26:23.419Z,7.10
2023-01-07T06:28:51.907Z,7.00
2023-01-07T06:31:18.843Z,6.90
2023-01-07T06:33:45.702Z,6.90
2023-01-07T06:36:12.697Z,6.90
2023-01-07T06:38:41.566Z,6.90
2023-01-07T06:41:08.901Z,6.90
2023-01-07T06:43:35.759Z,6.90
2023-01-07T06:46:02.838Z,7.00
2023-01-07T06:48:29.791Z,7.10
2023-01-07T06:50:56.697Z,7.00
2023-01-07T06:53:23.558Z,7.00
2023-01-07T06:55:51.955Z,7.00
2023-01-07T06:58:19.255Z,6.80
2023-01-07T07:00:46.218Z,6.90
2023-01-07T07:03:13.180Z,7.00
2023-01-07T07:05:40.737Z,7.00
2023-01-07T07:08:07.590Z,7.10
2023-01-07T07:10:34.436Z,7.10
2023-01-07T07:13:01.811Z,7.10
2023-01-07T07:15:28.658Z,7.10
2023-01-07T07:17:55.464Z,7.20
2023-01-07T07:20:22.284Z,7.00
2023-01-07T07:22:49.375Z,7.10
2023-01-07T07:25:16.474Z,7.20
2023-01-07T07:27:47.188Z,7.10
2023-01-07T07:30:15.316Z,6.90
2023-01-07T07:32:42.851Z,7.10
2023-01-07T07:35:10.987Z,7.10
2023-01-07T07:37:38.359Z,7.10
2023-01-07T07:40:06.977Z,7.20
2023-01-07T07:43:10.637Z,7.10
2023-01-07T07:45:20.711Z,7.10
2023-01-07T07:47:47.597Z,7.20
2023-01-07T07:50:14.465Z,7.10
2023-01-07T07:52:41.358Z,7.20
2023-01-07T07:55:20.809Z,7.00
2023-01-07T07:57:58.265Z,7.00
2023-01-07T08:00:25.315Z,6.90
2023-01-07T08:02:52.533Z,7.00
2023-01-07T08:05:19.378Z,6.90
2023-01-07T08:07:46.277Z,6.90
2023-01-07T08:10:13.156Z,7.10
2023-01-07T08:12:40.362Z,7.20
2023-01-07T08:15:08.129Z,7.20
2023-01-07T08:17:36.446Z,7.20
2023-01-07T08:20:07.447Z,7.10
2023-01-07T08:22:34.808Z,7.10
2023-01-07T08:25:02.051Z,7.10
2023-01-07T08:27:29.654Z,7.10
2023-01-07T08:29:56.729Z,7.20
2023-01-07T08:32:24.040Z,7.10
2023-01-07T08:34:50.855Z,7.10
2023-01-07T08:37:17.675Z,7.10
2023-01-07T08:39:44.530Z,7.10
2023-01-07T08:42:11.380Z,7.00
2023-01-07T08:44:38.231Z,6.90
2023-01-07T08:47:05.070Z,6.90
2023-01-07T08:49:32.157Z,6.80
2023-01-07T08:51:58.976Z,6.90
2023-01-07T08:54:25.892Z,7.00
2023-01-07T08:56:52.750Z,6.80
2023-01-07T08:59:19.621Z,7.00
2023-01-07T09:01:46.731Z,7.00
2023-01-07T09:04:13.705Z,6.90
2023-01-07T09:06:40.593Z,6.90
2023-01-07T09:09:08.606Z,6.80
2023-01-07T09:11:35.407Z,6.80
2023-01-07T09:14:02.390Z,6.80
2023-01-07T09:16:29.347Z,6.90
2023-01-07T09:18:56.166Z,6.90
2023-01-07T09:21:23.035Z,6.90
2023-01-07T09:23:49.916Z,6.90
2023-01-07T09:26:16.836Z,6.90
2023-01-07T09:28:43.662Z,6.90
2023-01-07T09:31:10.520Z,7.00
2023-01-07T09:33:37.500Z,7.00
2023-01-07T09:36:04.484Z,7.10
2023-01-07T09:38:31.554Z,7.20
2023-01-07T09:40:58.677Z,7.30
2023-01-07T09:43:59.865Z,7.40
2023-01-07T09:46:21.302Z,7.50
2023-01-07T09:48:57.940Z,7.50
2023-01-07T09:51:37.008Z,7.70
2023-01-07T09:54:06.172Z,7.50
2023-01-07T09:56:35.043Z,7.60
2023-01-07T09:59:04.088Z,7.60
2023-01-07T10:01:46.210Z,7.60
2023-01-07T10:04:24.935Z,7.60
2023-01-07T10:06:59.096Z,7.60
2023-01-07T10:09:57.834Z,7.60
2023-01-07T10:13:00.491Z,7.60
2023-01-07T10:15:42.975Z,7.60
2023-01-07T10:18:54.021Z,7.60
2023-01-07T10:21:23.851Z,7.50
2023-01-07T10:23:57.634Z,7.60
2023-01-07T10:26:37.037Z,7.60
2023-01-07T10:29:16.609Z,7.60
2023-01-07T10:31:45.439Z,7.60
2023-01-07T10:34:35.904Z,7.50
2023-01-07T10:37:14.059Z,7.50
2023-01-07T10:40:12.721Z,7.50
2023-01-07T10:43:01.077Z,7.50
2023-01-07T10:45:53.672Z,7.60
2023-01-07T10:48:44.829Z,7.70
2023-01-07T10:51:34.601Z,7.70
2023-01-07T10:54:46.690Z,7.80
2023-01-07T10:57:23.189Z,7.70
2023-01-07T10:59:52.323Z,7.80
2023-01-07T11:02:22.340Z,7.90
2023-01-07T11:04:49.501Z,8.00
2023-01-07T11:07:49.907Z,8.10
2023-01-07T11:10:25.078Z,8.10
2023-01-07T11:13:00.303Z,8.40
2023-01-07T11:15:36.152Z,8.50
2023-01-07T11:18:12.314Z,8.50
2023-01-07T11:20:51.319Z,8.60
2023-01-07T11:23:32.927Z,8.70
2023-01-07T11:26:19.730Z,8.80
2023-01-07T11:29:16.784Z,8.80
2023-01-07T11:31:53.369Z,8.90
2023-01-07T11:34:24.073Z,8.90
2023-01-07T11:36:51.865Z,8.90
2023-01-07T11:39:25.579Z,8.90
2023-01-07T11:41:58.717Z,8.90
2023-01-07T11:44:26.476Z,8.80
2023-01-07T11:46:54.795Z,8.80
2023-01-07T11:49:28.999Z,8.80
2023-01-07T11:51:56.891Z,8.90
2023-01-07T11:54:29.197Z,8.90
2023-01-07T11:57:12.337Z,9.20
2023-01-07T11:59:39.206Z,9.10
2023-01-07T12:02:24.447Z,9.10
2023-01-07T12:04:51.331Z,9.20
2023-01-07T12:07:18.291Z,9.10
2023-01-07T12:09:46.177Z,9.10
2023-01-07T12:12:43.593Z,9.10
2023-01-07T12:15:48.451Z,9.10
2023-01-07T12:18:33.375Z,9.20
2023-01-07T12:21:24.582Z,9.40
2023-01-07T12:23:57.991Z,9.50
2023-01-07T12:26:40.848Z,9.60
2023-01-07T12:29:36.184Z,9.60
2023-01-07T12:32:15.873Z,9.70
2023-01-07T12:35:14.649Z,9.70
2023-01-07T12:37:52.988Z,9.70
2023-01-07T12:40:42.071Z,9.80
2023-01-07T12:43:23.599Z,9.80
2023-01-07T12:46:02.262Z,9.80
2023-01-07T12:48:40.102Z,9.70
2023-01-07T12:51:26.526Z,9.70
2023-01-07T12:54:15.517Z,9.80
2023-01-07T12:56:56.502Z,9.70
2023-01-07T12:59:46.751Z,9.80
2023-01-07T13:02:24.920Z,9.80
2023-01-07T13:05:06.231Z,9.80
2023-01-07T13:07:40.492Z,9.70
2023-01-07T13:10:19.164Z,9.70
2023-01-07T13:12:48.468Z,9.60
2023-01-07T13:15:21.643Z,9.60
2023-01-07T13:17:50.599Z,9.70
2023-01-07T13:20:27.940Z,9.60
2023-01-07T13:22:56.620Z,9.60
2023-01-07T13:25:52.779Z,9.50
2023-01-07T13:28:25.725Z,9.50
2023-01-07T13:31:34.124Z,9.40
2023-01-07T13:34:20.190Z,9.30
2023-01-07T13:37:03.631Z,9.20
2023-01-07T13:40:03.546Z,9.10
2023-01-07T13:42:45.095Z,9.10
2023-01-07T13:45:17.628Z,9.00
2023-01-07T13:47:56.499Z,9.00
2023-01-07T13:50:41.769Z,9.00
2023-01-07T13:53:14.963Z,8.90
2023-01-07T13:55:46.860Z,8.90
2023-01-07T13:58:32.077Z,8.90
2023-01-07T14:01:10.739Z,8.90
2023-01-07T14:03:43.772Z,8.90
2023-01-07T14:06:19.910Z,8.90
2023-01-07T14:08:52.712Z,8.80
2023-01-07T14:11:29.652Z,8.90
2023-01-07T14:14:26.508Z,8.80
2023-01-07T14:17:02.297Z,8.90
2023-01-07T14:19:53.742Z,8.90
2023-01-07T14:22:33.474Z,8.80
2023-01-07T14:25:18.977Z,8.70
2023-01-07T14:28:13.103Z,8.60
2023-01-07T14:30:46.136Z,8.60
2023-01-07T14:33:21.468Z,8.50
2023-01-07T14:35:56.509Z,8.30
2023-01-07T14:38:32.332Z,8.50
2023-01-07T14:41:16.428Z,8.50
2023-01-07T14:43:46.048Z,8.50
2023-01-07T14:46:24.941Z,8.50
2023-01-07T14:49:03.867Z,8.40
2023-01-07T14:51:58.962Z,8.40
2023-01-07T14:54:38.175Z,8.30
2023-01-07T14:57:19.990Z,8.30
2023-01-07T15:00:05.055Z,8.20
2023-01-07T15:02:40.855Z,8.20
2023-01-07T15:05:29.730Z,8.20
2023-01-07T15:08:19.646Z,8.10
2023-01-07T15:11:08.276Z,8.40
2023-01-07T15:13:59.743Z,8.10
2023-01-07T15:16:28.284Z,8.10
2023-01-07T15:18:55.231Z,8.20
2023-01-07T15:21:58.833Z,8.00
2023-01-07T15:24:53.506Z,8.10
2023-01-07T15:27:44.038Z,8.10
2023-01-07T15:30:52.095Z,8.00
2023-01-07T15:33:24.696Z,8.00
2023-01-07T15:35:51.946Z,8.00
2023-01-07T15:38:27.620Z,8.00
2023-01-07T15:40:56.746Z,8.00
2023-01-07T15:43:25.886Z,7.90
2023-01-07T15:46:06.954Z,7.90
2023-01-07T15:48:34.129Z,8.00
2023-01-07T15:51:00.927Z,7.80
2023-01-07T15:53:29.911Z,7.90
2023-01-07T15:56:06.425Z,7.90
2023-01-07T15:58:40.225Z,7.90
2023-01-07T16:01:15.325Z,7.80
2023-01-07T16:03:44.521Z,7.80
2023-01-07T16:06:26.232Z,7.70
2023-01-07T16:08:53.168Z,7.70
2023-01-07T16:11:30.754Z,7.70
2023-01-07T16:14:02.652Z,7.70
2023-01-07T16:16:31.825Z,7.70
2023-01-07T16:19:02.715Z,7.60
2023-01-07T16:21:36.596Z,7.80
2023-01-07T16:24:04.333Z,7.50
2023-01-07T16:26:36.876Z,7.50
2023-01-07T16:29:09.810Z,7.40
2023-01-07T16:31:37.496Z,7.40
2023-01-07T16:34:37.666Z,7.30
2023-01-07T16:37:10.174Z,7.30
2023-01-07T16:39:43.349Z,7.20
2023-01-07T16:42:20.465Z,7.20
2023-01-07T16:44:49.477Z,7.10
2023-01-07T16:47:22.277Z,7.20
2023-01-07T16:49:53.753Z,7.10
2023-01-07T16:52:22.581Z,7.10
2023-01-07T16:54:50.170Z,6.90
2023-01-07T16:57:41.605Z,7.00
2023-01-07T17:00:19.277Z,7.00
2023-01-07T17:02:59.702Z,6.90
2023-01-07T17:05:29.776Z,6.90
2023-01-07T17:08:06.510Z,6.90
2023-01-07T17:10:40.584Z,7.00
2023-01-07T17:13:32.293Z,6.90
2023-01-07T17:16:14.519Z,7.00
2023-01-07T17:18:41.455Z,7.00
2023-01-07T17:21:32.732Z,7.00
2023-01-07T17:23:59.675Z,6.90
2023-01-07T17:26:27.939Z,6.80
2023-01-07T17:29:09.470Z,6.80
2023-01-07T17:31:40.514Z,6.80
2023-01-07T17:34:09.832Z,6.90
2023-01-07T17:36:36.651Z,6.90
2023-01-07T17:39:04.004Z,6.70
2023-01-07T17:41:53.135Z,6.70
2023-01-07T17:44:19.955Z,6.70
2023-01-07T17:46:50.434Z,6.80
2023-01-07T17:49:17.372Z,6.70
2023-01-07T17:51:46.998Z,6.60
2023-01-07T17:54:26.758Z,6.60
2023-01-07T17:56:53.671Z,6.70
2023-01-07T17:59:22.521Z,6.70
2023-01-07T18:01:51.383Z,6.60
2023-01-07T18:04:18.328Z,6.80
2023-01-07T18:06:45.410Z,6.60
2023-01-07T18:09:13.635Z,6.60
2023-01-07T18:12:02.983Z,6.50
2023-01-07T18:14:30.247Z,6.50
2023-01-07T18:16:57.110Z,6.40
2023-01-07T18:19:24.052Z,6.40
2023-01-07T18:21:50.873Z,6.60
2023-01-07T18:24:19.934Z,6.60
2023-01-07T18:26:47.466Z,6.50
2023-01-07T18:29:14.673Z,6.80
2023-01-07T18:31:44.019Z,6.80
2023-01-07T18:34:13.733Z,6.50
2023-01-07T18:36:40.769Z,6.50
2023-01-07T18:39:11.042Z,6.40
2023-01-07T18:41:39.698Z,6.40
2023-01-07T18:44:06.972Z,6.40
2023-01-07T18:46:33.935Z,6.40
2023-01-07T18:49:00.813Z,6.40
2023-01-07T18:51:36.293Z,6.40
2023-01-07T18:54:03.468Z,6.50
2023-01-07T18:56:30.347Z,6.40
2023-01-07T18:58:57.179Z,6.40
2023-01-07T19:01:24.377Z,6.50
2023-01-07T19:03:51.633Z,6.40
2023-01-07T19:06:18.561Z,6.40
2023-01-07T19:08:45.393Z,6.30
2023-01-07T19:11:14.146Z,6.30
2023-01-07T19:13:41.363Z,6.30
2023-01-07T19:16:10.400Z,6.10
2023-01-07T19:18:37.668Z,6.10
2023-01-07T19:21:06.379Z,6.40
2023-01-07T19:23:33.383Z,6.30
2023-01-07T19:26:06.352Z,6.10
2023-01-07T19:28:33.474Z,6.30
2023-01-07T19:31:04.125Z,6.30
2023-01-07T19:33:30.935Z,6.50
2023-01-07T19:36:07.487Z,6.30
2023-01-07T19:38:39.314Z,6.10
2023-01-07T19:41:15.496Z,6.20
2023-01-07T19:43:43.427Z,6.20
2023-01-07T19:46:11.482Z,6.20
2023-01-07T19:48:38.836Z,6.10
2023-01-07T19:51:06.827Z,6.00
2023-01-07T19:53:35.072Z,5.90
2023-01-07T19:56:04.776Z,5.90
2023-01-07T19:58:32.651Z,6.00
2023-01-07T20:01:07.860Z,6.00
2023-01-07T20:03:35.990Z,5.90
2023-01-07T20:06:12.366Z,5.90
2023-01-07T20:08:40.242Z,6.00
2023-01-07T20:11:07.551Z,5.90
2023-01-07T20:13:36.230Z,5.90
2023-01-07T20:16:08.408Z,5.80
2023-01-07T20:18:47.155Z,6.00
2023-01-07T20:21:16.249Z,6.00
2023-01-07T20:23:43.500Z,5.90
2023-01-07T20:26:24.999Z,6.00
2023-01-07T20:28:52.199Z,5.80
2023-01-07T20:31:21.449Z,5.80
2023-01-07T20:33:50.394Z,5.70
2023-01-07T20:36:20.311Z,5.70
2023-01-07T20:38:48.161Z,5.70
2023-01-07T20:41:26.736Z,5.80
2023-01-07T20:43:55.982Z,5.80
2023-01-07T20:46:23.873Z,5.70
2023-01-07T20:48:50.966Z,5.70
2023-01-07T20:51:18.401Z,5.70
2023-01-07T20:53:46.838Z,5.70
2023-01-07T20:56:17.166Z,5.50
2023-01-07T20:58:44.847Z,5.50
2023-01-07T21:01:14.049Z,5.80
2023-01-07T21:03:41.765Z,5.60
2023-01-07T21:06:10.351Z,5.70
2023-01-07T21:08:37.531Z,5.70
2023-01-07T21:11:07.960Z,5.50
2023-01-07T21:13:34.794Z,5.60
2023-01-07T21:16:03.945Z,5.60
2023-01-07T21:18:32.241Z,5.60
2023-01-07T21:20:59.775Z,5.70
2023-01-07T21:23:29.136Z,5.70
2023-01-07T21:25:56.082Z,5.70
2023-01-07T21:28:22.941Z,5.80
2023-01-07T21:30:50.174Z,5.90
2023-01-07T21:33:17.140Z,5.90
2023-01-07T21:35:43.986Z,5.80
2023-01-07T21:38:10.880Z,5.80
2023-01-07T21:40:39.463Z,5.70
2023-01-07T21:43:06.524Z,5.80
2023-01-07T21:45:33.416Z,5.70
2023-01-07T21:48:00.464Z,5.70
2023-01-07T21:50:27.354Z,5.80
2023-01-07T21:52:54.172Z,5.80
2023-01-07T21:55:20.997Z,5.80
2023-01-07T21:57:47.842Z,5.70
2023-01-07T22:00:15.260Z,5.70
2023-01-07T22:02:42.132Z,5.70
2023-01-07T22:05:09.403Z,5.80
2023-01-07T22:07:36.322Z,5.70
2023-01-07T22:10:03.922Z,5.70
2023-01-07T22:12:30.809Z,5.60
2023-01-07T22:14:57.690Z,5.50
2023-01-07T22:17:25.137Z,5.60
2023-01-07T22:19:51.957Z,5.60
2023-01-07T22:22:20.893Z,5.50
2023-01-07T22:24:47.774Z,5.50
2023-01-07T22:27:14.641Z,5.40
2023-01-07T22:29:42.319Z,5.40
2023-01-07T22:32:09.178Z,5.30
2023-01-07T22:34:35.982Z,5.50
2023-01-07T22:37:15.197Z,5.50
2023-01-07T22:39:47.092Z,5.50
2023-01-07T22:42:29.052Z,5.40
2023-01-07T22:45:04.736Z,5.50
2023-01-07T22:47:37.880Z,5.40
2023-01-07T22:50:06.723Z,5.60
2023-01-07T22:52:33.759Z,5.60
2023-01-07T22:55:01.124Z,5.80
2023-01-07T22:57:28.825Z,5.70
2023-01-07T22:59:55.667Z,5.60
2023-01-07T23:02:22.470Z,5.60
2023-01-07T23:04:49.262Z,5.60
2023-01-07T23:07:16.079Z,5.70
2023-01-07T23:09:42.883Z,5.60
2023-01-07T23:12:11.096Z,5.40
2023-01-07T23:14:37.882Z,5.40
2023-01-07T23:17:04.806Z,5.50
2023-01-07T23:19:32.297Z,5.50
2023-01-07T23:21:59.273Z,5.70
2023-01-07T23:24:26.112Z,5.50
2023-01-07T23:26:54.188Z,5.40
2023-01-07T23:29:21.874Z,5.50
2023-01-07T23:31:49.204Z,5.40
2023-01-07T23:34:16.395Z,5.40
2023-01-07T23:36:43.234Z,5.40
2023-01-07T23:39:16.378Z,5.30
2023-01-07T23:41:43.246Z,5.30
2023-01-07T23:44:10.283Z,5.20
2023-01-07T23:46:37.229Z,5.40
2023-01-07T23:49:04.088Z,5.40
2023-01-07T23:51:30.892Z,5.40
2023-01-07T23:53:57.699Z,5.30
2023-01-07T23:56:24.488Z,5.30
2023-01-07T23:58:51.394Z,5.30
